FDX6146 LGAV-EDDM
Flight info
| Callsign | FDX6146 |
|---|---|
| Flight time | N/A |
| Altitude | 32000 |
| Route | KOR UL613 XANIS DCT DIMIS DCT PETAK DCT GLOMY DCT ELTIB DCT GORPA DCT BERTA DCT RASTA DCT REDBU Q112 NAPSA NAPSA4A |
| Aircraft | B77L/H-SDE1E2E3FGHIJ2J3J4J5M1RWXY/LB1D1 |
Departure
| Time | 2026-05-04 15:26 |
|---|---|
| Airport | Athens Eleftherios Venizelos International Airport (LGAV) |
Arrival
| Time | N/A |
|---|---|
| Airport | Munich Airport (EDDM) |
| Time | Latitude | Longitude | Altitude | Speed | Heading |
|---|---|---|---|---|---|
| 2026-05-04 14:55 | 37.92472 | 23.93828 | 308 ft | 0 kts | 306° |
| 2026-05-04 15:19 | 37.92458 | 23.93851 | 306 ft | 4 kts | 312° |
| 2026-05-04 15:20 | 37.92439 | 23.93875 | 304 ft | 4 kts | 319° |
| 2026-05-04 15:20 | 37.92418 | 23.93896 | 307 ft | 4 kts | 328° |
| 2026-05-04 15:20 | 37.92394 | 23.93912 | 304 ft | 4 kts | 341° |
| 2026-05-04 15:20 | 37.92369 | 23.93917 | 305 ft | 4 kts | 18° |
| 2026-05-04 15:21 | 37.92361 | 23.93913 | 306 ft | 1 kts | 37° |
| 2026-05-04 15:23 | 37.92368 | 23.93920 | 304 ft | 6 kts | 37° |
| 2026-05-04 15:23 | 37.92415 | 23.93963 | 306 ft | 9 kts | 37° |
| 2026-05-04 15:23 | 37.92464 | 23.94010 | 310 ft | 9 kts | 38° |
| 2026-05-04 15:24 | 37.92437 | 23.94151 | 309 ft | 9 kts | 128° |
| 2026-05-04 15:24 | 37.92414 | 23.94265 | 310 ft | 13 kts | 86° |
| 2026-05-04 15:25 | 37.92410 | 23.94368 | 313 ft | 9 kts | 73° |
| 2026-05-04 15:25 | 37.92453 | 23.94420 | 316 ft | 12 kts | 37° |
| 2026-05-04 15:25 | 37.92651 | 23.94610 | 310 ft | 71 kts | 37° |
| 2026-05-04 15:26 | 37.94184 | 23.96060 | 315 ft | 190 kts | 39° |
| 2026-05-04 15:26 | 37.95233 | 23.97042 | 1014 ft | 184 kts | 40° |
| 2026-05-04 15:26 | 37.97309 | 23.99050 | 2143 ft | 200 kts | 33° |
| 2026-05-04 15:27 | 37.98482 | 24.00174 | 2384 ft | 222 kts | 34° |
| 2026-05-04 15:27 | 38.00969 | 24.02653 | 3597 ft | 234 kts | 35° |
| 2026-05-04 15:28 | 38.03577 | 24.05292 | 4822 ft | 245 kts | 35° |
| 2026-05-04 15:28 | 38.04920 | 24.06661 | 5610 ft | 244 kts | 34° |
| 2026-05-04 15:28 | 38.07687 | 24.09100 | 6805 ft | 244 kts | 10° |
| 2026-05-04 15:29 | 38.09365 | 24.09129 | 7298 ft | 246 kts | 342° |
| 2026-05-04 15:30 | 38.12052 | 24.01300 | 9519 ft | 279 kts | 274° |
| 2026-05-04 15:30 | 38.12066 | 23.93462 | 10628 ft | 326 kts | 273° |